Time;durP1;ratioP1;P1;durP2;ratioP2;P2;SDS_P1;SDS_P2;PMS_P1;PMS_P2;Temp;Humidity;BMP_temperature;BMP_pressure;BME280_temperature;BME280_humidity;BME280_pressure;Samples;Min_cycle;Max_cycle;Signal;HPM_P1;HPM_P2
2022/01/20 00:00:15;;;;;;;15.05;2.00;;;5.00;99.90;;;;;;5037969;28;20094;-68
2022/01/20 00:02:42;;;;;;;10.30;1.50;;;4.90;99.90;;;;;;5034860;28;20713;-68
2022/01/20 00:05:25;;;;;;;11.50;1.63;;;4.90;99.90;;;;;;5041638;28;20068;-68
2022/01/20 00:27:09;;;;;;;9.52;1.35;;;4.80;99.90;;;;;;5050779;28;20077;-71
2022/01/20 00:30:03;;;;;;;12.27;2.05;;;4.80;99.90;;;;;;5027803;28;20131;-70
2022/01/20 00:32:25;;;;;;;;;;;4.80;99.90;;;;;;5047418;28;20144;-69
2022/01/20 00:37:28;;;;;;;12.63;1.60;;;4.80;99.90;;;;;;5042813;28;20107;-70
2022/01/20 00:39:54;;;;;;;10.90;1.50;;;4.80;99.90;;;;;;5044179;28;20051;-69
2022/01/20 00:42:20;;;;;;;11.75;1.38;;;4.80;99.90;;;;;;5039992;28;20090;-70
2022/01/20 00:44:47;;;;;;;10.73;2.22;;;4.80;99.90;;;;;;5046281;28;20037;-70
2022/01/20 00:47:13;;;;;;;10.07;2.17;;;4.80;99.90;;;;;;5042223;28;20038;-70
2022/01/20 00:49:39;;;;;;;8.05;1.40;;;4.80;99.90;;;;;;5037240;28;20052;-70
2022/01/20 00:52:05;;;;;;;13.30;2.22;;;4.80;99.90;;;;;;5041465;28;20041;-70
2022/01/20 00:54:32;;;;;;;12.90;1.75;;;4.90;99.90;;;;;;5041025;28;20082;-71
2022/01/20 00:56:58;;;;;;;15.45;2.13;;;4.90;99.90;;;;;;5044167;28;20037;-71
2022/01/20 00:59:23;;;;;;;12.35;2.03;;;4.90;99.90;;;;;;5034241;28;20405;-71
2022/01/20 01:01:50;;;;;;;10.48;2.20;;;5.00;99.90;;;;;;5041688;28;20132;-70
2022/01/20 01:04:16;;;;;;;14.32;2.20;;;5.00;99.90;;;;;;5046115;28;20048;-70
2022/01/20 01:09:07;;;;;;;11.90;2.17;;;4.90;99.90;;;;;;5053181;28;20051;-70
2022/01/20 01:11:34;;;;;;;12.25;2.10;;;4.90;99.90;;;;;;5055781;28;20056;-71
2022/01/20 01:14:02;;;;;;;17.00;2.30;;;5.00;99.90;;;;;;5044554;28;20098;-71
2022/01/20 01:16:41;;;;;;;16.83;2.65;;;5.00;99.90;;;;;;5023592;28;20472;-69
2022/01/20 01:24:37;;;;;;;10.38;2.08;;;5.00;99.90;;;;;;5040497;28;20048;-69
2022/01/20 01:27:03;;;;;;;7.60;1.75;;;4.90;99.90;;;;;;5037257;28;20437;-70
2022/01/20 01:32:15;;;;;;;6.90;1.30;;;4.80;99.90;;;;;;5042309;28;20404;-70
2022/01/20 01:34:47;;;;;;;7.35;1.48;;;4.80;99.90;;;;;;5039979;28;20034;-69
2022/01/20 01:39:57;;;;;;;5.53;1.17;;;4.70;99.90;;;;;;5040637;28;20068;-69
2022/01/20 01:42:28;;;;;;;5.63;1.20;;;4.60;99.90;;;;;;5044735;28;20041;-71
2022/01/20 01:44:55;;;;;;;4.93;0.90;;;4.50;99.90;;;;;;5034957;28;20060;-69
2022/01/20 01:47:20;;;;;;;7.90;1.10;;;4.50;99.90;;;;;;5038180;28;20094;-69
2022/01/20 01:49:46;;;;;;;9.10;1.52;;;4.50;99.90;;;;;;5049105;28;20416;-69
2022/01/20 01:52:11;;;;;;;6.53;1.17;;;4.50;99.90;;;;;;5041935;28;20045;-69
2022/01/20 01:54:37;;;;;;;10.98;1.50;;;4.50;99.90;;;;;;5039693;28;20069;-69
2022/01/20 01:57:06;;;;;;;7.57;1.60;;;4.50;99.90;;;;;;5047302;28;20037;-70
2022/01/20 01:59:33;;;;;;;5.53;1.00;;;4.50;99.90;;;;;;5041897;28;20037;-69
2022/01/20 02:01:59;;;;;;;10.90;1.30;;;4.50;99.90;;;;;;5043411;28;20120;-69
2022/01/20 02:04:24;;;;;;;7.05;1.30;;;4.50;99.90;;;;;;5037256;28;20207;-69
2022/01/20 02:17:48;;;;;;;8.05;1.55;;;4.50;99.90;;;;;;5042939;28;20047;-69
2022/01/20 02:17:56;;;;;;;7.72;1.23;;;4.60;99.90;;;;;;5044019;28;20107;-69
2022/01/20 02:20:21;;;;;;;6.53;1.17;;;4.60;99.90;;;;;;5045359;28;20094;-69
2022/01/20 02:22:47;;;;;;;8.15;1.30;;;4.70;99.90;;;;;;5039306;28;20073;-70
2022/01/20 02:25:23;;;;;;;10.07;1.50;;;4.70;99.90;;;;;;5045790;28;20090;-70
2022/01/20 02:27:50;;;;;;;7.55;1.40;;;4.80;99.90;;;;;;5045438;28;20073;-69
2022/01/20 02:30:18;;;;;;;5.80;1.00;;;4.80;99.90;;;;;;5045473;28;20119;-69
2022/01/20 02:32:54;;;;;;;7.65;1.13;;;4.80;99.90;;;;;;5039135;28;20045;-69
2022/01/20 02:35:21;;;;;;;9.07;1.08;;;4.80;99.90;;;;;;5042307;28;20132;-69
2022/01/20 02:37:49;;;;;;;10.93;1.67;;;4.80;99.90;;;;;;5048600;28;20049;-69
2022/01/20 02:45:36;;;;;;;5.95;0.93;;;4.70;99.90;;;;;;5040032;28;20682;-69
2022/01/20 02:48:02;;;;;;;6.50;1.08;;;4.70;99.90;;;;;;5043334;28;20045;-69
2022/01/20 02:50:27;;;;;;;6.85;1.20;;;4.70;99.90;;;;;;5049762;28;20124;-70
2022/01/20 02:52:53;;;;;;;8.82;1.55;;;4.70;99.90;;;;;;5046768;28;20085;-70
2022/01/20 02:55:19;;;;;;;9.48;1.52;;;4.70;99.90;;;;;;5044240;28;20097;-70
2022/01/20 02:57:44;;;;;;;5.95;1.00;;;4.70;99.90;;;;;;5045864;28;20130;-70
2022/01/20 03:00:10;;;;;;;6.05;0.98;;;4.70;99.90;;;;;;5050834;28;20067;-70
2022/01/20 03:02:37;;;;;;;8.05;1.30;;;4.70;99.90;;;;;;5038606;28;20145;-70
2022/01/20 03:05:03;;;;;;;7.32;1.20;;;4.70;99.90;;;;;;5047226;28;20593;-70
2022/01/20 03:07:29;;;;;;;9.00;1.55;;;4.70;99.90;;;;;;5031958;28;20136;-70
2022/01/20 03:09:54;;;;;;;9.20;1.70;;;4.70;99.90;;;;;;5037778;28;20080;-70
2022/01/20 03:12:20;;;;;;;7.03;1.40;;;4.70;99.90;;;;;;5048232;28;20052;-70
2022/01/20 03:14:45;;;;;;;8.43;1.40;;;4.70;99.90;;;;;;5041283;28;20075;-70
2022/01/20 03:17:13;;;;;;;8.68;1.30;;;4.60;99.90;;;;;;5047466;28;20049;-71
2022/01/20 03:19:39;;;;;;;8.80;1.40;;;4.60;99.90;;;;;;5038011;28;21548;-70
2022/01/20 03:22:04;;;;;;;11.20;1.80;;;4.60;99.90;;;;;;5049495;28;20107;-70
2022/01/20 03:24:30;;;;;;;11.60;1.60;;;4.60;99.90;;;;;;5034448;28;20047;-70
2022/01/20 03:26:55;;;;;;;11.23;1.42;;;4.60;99.90;;;;;;5042719;28;20110;-70
2022/01/20 03:29:21;;;;;;;10.75;2.13;;;4.60;99.90;;;;;;5049769;28;20048;-70
2022/01/20 03:31:46;;;;;;;8.38;1.60;;;4.60;99.90;;;;;;5040868;28;20041;-70
2022/01/20 03:34:12;;;;;;;17.50;1.95;;;4.50;99.90;;;;;;5047056;28;20045;-70
2022/01/20 03:36:38;;;;;;;11.63;1.80;;;4.50;99.90;;;;;;5038543;28;20036;-70
2022/01/20 03:39:05;;;;;;;12.07;1.67;;;4.50;99.90;;;;;;5040260;28;20029;-70
2022/01/20 03:41:31;;;;;;;15.13;1.90;;;4.50;99.90;;;;;;5037733;28;20052;-70
2022/01/20 03:43:56;;;;;;;11.02;1.92;;;4.50;99.90;;;;;;5040013;28;20042;-70
2022/01/20 03:46:23;;;;;;;11.25;2.17;;;4.50;99.90;;;;;;5035955;28;20055;-70
2022/01/20 03:48:50;;;;;;;12.63;1.92;;;4.50;99.90;;;;;;5037488;28;20080;-70
2022/01/20 03:51:21;;;;;;;13.20;1.92;;;4.50;99.90;;;;;;5034943;28;20441;-70
2022/01/20 03:53:48;;;;;;;14.50;2.22;;;4.50;99.90;;;;;;5036771;28;20041;-70
2022/01/20 03:56:14;;;;;;;14.55;2.03;;;4.50;99.90;;;;;;5038269;28;20044;-70
2022/01/20 03:58:40;;;;;;;12.55;2.78;;;4.50;99.90;;;;;;5038577;28;20341;-70
2022/01/20 04:01:05;;;;;;;15.45;2.70;;;4.50;99.90;;;;;;5034776;28;20057;-70
2022/01/20 04:03:31;;;;;;;16.70;2.58;;;4.50;99.90;;;;;;5036541;28;20073;-70
2022/01/20 04:05:57;;;;;;;18.15;3.05;;;4.50;99.90;;;;;;5038748;28;20059;-70
2022/01/20 04:08:32;;;;;;;17.00;3.08;;;4.50;99.90;;;;;;5046914;28;20041;-70
2022/01/20 04:11:03;;;;;;;14.18;2.47;;;4.40;99.90;;;;;;5031038;28;20135;-70
2022/01/20 04:13:31;;;;;;;18.75;3.13;;;4.40;99.90;;;;;;5043333;28;20479;-70
2022/01/20 04:16:10;;;;;;;18.75;2.88;;;4.50;99.90;;;;;;5052820;28;20110;-70
2022/01/20 04:18:36;;;;;;;22.55;3.70;;;4.40;99.90;;;;;;5041069;28;20095;-70
2022/01/20 04:21:01;;;;;;;15.57;2.67;;;4.40;99.90;;;;;;5040923;28;20072;-70
2022/01/20 04:23:30;;;;;;;18.33;3.00;;;4.40;99.90;;;;;;5035008;28;20095;-70
2022/01/20 04:25:56;;;;;;;20.73;3.88;;;4.40;99.90;;;;;;5045494;28;20488;-70
2022/01/20 04:28:22;;;;;;;22.17;3.47;;;4.40;99.90;;;;;;5048216;28;20061;-70
2022/01/20 04:30:48;;;;;;;20.75;3.20;;;4.40;99.90;;;;;;5052056;28;20659;-70
2022/01/20 04:33:14;;;;;;;19.80;3.47;;;4.40;99.90;;;;;;5038525;28;20179;-70
2022/01/20 04:35:40;;;;;;;22.58;3.15;;;4.40;99.90;;;;;;5034673;28;20042;-70
2022/01/20 04:38:06;;;;;;;19.05;3.38;;;4.40;99.90;;;;;;5039927;28;20652;-70
2022/01/20 04:40:38;;;;;;;21.75;3.60;;;4.40;99.90;;;;;;5041657;28;20069;-70
2022/01/20 04:43:04;;;;;;;15.02;3.33;;;4.40;99.90;;;;;;5039904;28;20048;-70
2022/01/20 04:45:34;;;;;;;13.40;2.60;;;4.30;99.90;;;;;;5036763;28;20345;-70
2022/01/20 04:48:15;;;;;;;19.08;4.03;;;4.30;99.90;;;;;;5040893;28;20084;-70
2022/01/20 04:58:54;;;;;;;11.85;2.47;;;4.30;99.90;;;;;;5032068;28;20053;-70
2022/01/20 05:01:19;;;;;;;10.90;2.40;;;4.30;99.90;;;;;;5038989;28;20053;-70
2022/01/20 05:03:45;;;;;;;10.65;2.25;;;4.30;99.90;;;;;;5048412;28;20055;-70
2022/01/20 05:06:11;;;;;;;14.35;2.58;;;4.30;99.90;;;;;;5042956;28;20460;-70
2022/01/20 05:08:37;;;;;;;11.63;2.30;;;4.30;99.90;;;;;;5056135;28;20083;-70
2022/01/20 05:11:04;;;;;;;14.18;2.20;;;4.20;99.90;;;;;;5045178;28;20084;-70
2022/01/20 05:13:36;;;;;;;15.55;2.35;;;4.20;99.90;;;;;;5037604;28;20068;-70
2022/01/20 05:16:02;;;;;;;11.20;2.00;;;4.20;99.90;;;;;;5040620;28;20092;-70
2022/01/20 05:18:28;;;;;;;13.13;2.60;;;4.20;99.90;;;;;;5038498;28;20049;-70
2022/01/20 05:20:54;;;;;;;10.98;2.25;;;4.20;99.90;;;;;;5043447;28;20044;-70
2022/01/20 05:23:20;;;;;;;13.18;2.60;;;4.10;99.90;;;;;;5030531;28;20124;-70
2022/01/20 05:25:45;;;;;;;14.23;2.00;;;3.90;99.90;;;;;;5046628;28;20071;-70
2022/01/20 05:28:11;;;;;;;12.90;2.00;;;3.80;99.90;;;;;;5048436;28;20048;-70
2022/01/20 05:30:38;;;;;;;17.25;2.58;;;3.70;99.90;;;;;;5045236;28;20179;-70
2022/01/20 05:33:04;;;;;;;10.10;2.55;;;3.60;99.90;;;;;;5042325;28;20072;-69
2022/01/20 05:35:30;;;;;;;11.77;2.28;;;3.60;99.90;;;;;;5039309;28;21483;-69
2022/01/20 05:37:56;;;;;;;13.10;2.78;;;3.50;99.90;;;;;;5044263;28;20127;-70
2022/01/20 05:40:22;;;;;;;14.55;2.20;;;3.50;99.90;;;;;;5041784;28;20499;-70
2022/01/20 05:42:48;;;;;;;10.73;2.00;;;3.40;99.90;;;;;;5036817;28;20033;-70
2022/01/20 05:45:13;;;;;;;13.90;2.72;;;3.40;99.90;;;;;;5024935;28;20019;-69
2022/01/20 05:47:45;;;;;;;12.00;1.88;;;3.40;99.90;;;;;;5038447;28;20144;-69
2022/01/20 05:50:14;;;;;;;12.57;2.42;;;3.40;99.90;;;;;;5049175;28;20479;-72
2022/01/20 05:52:42;;;;;;;14.63;1.98;;;3.30;99.90;;;;;;5038033;28;20045;-70
2022/01/20 05:55:10;;;;;;;12.90;2.10;;;3.30;99.90;;;;;;5033810;28;20045;-70
2022/01/20 05:57:36;;;;;;;13.55;2.10;;;3.30;99.90;;;;;;5040849;28;20037;-70
2022/01/20 06:00:06;;;;;;;10.55;2.15;;;3.30;99.90;;;;;;5041604;28;20151;-69
2022/01/20 06:05:18;;;;;;;14.13;2.08;;;3.30;99.90;;;;;;5026686;28;20530;-69
2022/01/20 06:07:43;;;;;;;8.52;1.95;;;3.30;99.90;;;;;;5034845;28;20049;-70
2022/01/20 06:10:09;;;;;;;14.27;2.67;;;3.30;99.90;;;;;;5046725;28;20048;-69
2022/01/20 06:12:34;;;;;;;11.80;1.95;;;3.40;99.90;;;;;;5024824;28;20045;-69
2022/01/20 06:15:00;;;;;;;18.55;2.55;;;3.40;99.90;;;;;;5050698;28;20052;-69
2022/01/20 06:17:28;;;;;;;13.13;2.00;;;3.50;99.90;;;;;;5041227;28;20456;-69
2022/01/20 06:19:53;;;;;;;12.65;1.90;;;3.40;99.90;;;;;;5051078;28;20053;-70
2022/01/20 06:22:19;;;;;;;10.50;1.85;;;3.40;99.90;;;;;;5042711;28;20053;-69
2022/01/20 06:24:45;;;;;;;12.82;2.45;;;3.40;99.90;;;;;;5048534;28;20033;-69
2022/01/20 06:27:10;;;;;;;15.88;2.10;;;3.30;99.90;;;;;;5057674;28;20370;-69
2022/01/20 06:29:36;;;;;;;15.00;2.33;;;3.30;99.90;;;;;;5044859;28;20045;-69
2022/01/20 06:32:02;;;;;;;12.73;2.45;;;3.30;99.90;;;;;;5061583;28;20049;-69
2022/01/20 06:34:27;;;;;;;12.75;2.13;;;3.30;99.90;;;;;;5044214;28;20525;-70
2022/01/20 06:36:53;;;;;;;12.90;2.38;;;3.20;99.90;;;;;;5055170;28;20049;-70
2022/01/20 06:39:18;;;;;;;13.10;2.30;;;3.20;99.90;;;;;;5040726;28;20107;-70
2022/01/20 06:41:44;;;;;;;7.22;1.60;;;3.30;99.90;;;;;;5046833;28;20103;-68
2022/01/20 06:44:10;;;;;;;22.13;2.20;;;3.20;99.90;;;;;;5040894;28;20042;-70
2022/01/20 06:46:35;;;;;;;11.10;2.17;;;3.20;99.90;;;;;;5040629;28;20036;-69
2022/01/20 06:49:01;;;;;;;16.27;2.72;;;3.20;99.90;;;;;;5041378;28;20579;-69
2022/01/20 06:51:26;;;;;;;11.88;2.70;;;3.20;99.90;;;;;;5031197;28;20493;-70
2022/01/20 06:53:52;;;;;;;10.70;1.83;;;3.20;99.90;;;;;;5048521;28;20088;-70
2022/01/20 06:56:17;;;;;;;11.13;2.20;;;3.20;99.90;;;;;;5034336;28;20072;-70
2022/01/20 06:58:43;;;;;;;10.18;2.17;;;3.20;99.90;;;;;;5057473;28;20366;-70
2022/01/20 07:01:08;;;;;;;10.73;2.38;;;3.20;99.90;;;;;;5035401;28;20601;-70
2022/01/20 07:03:34;;;;;;;13.68;2.10;;;3.20;99.90;;;;;;5050064;28;20485;-70
2022/01/20 07:05:59;;;;;;;13.80;2.55;;;3.20;99.90;;;;;;5043884;28;22049;-70
2022/01/20 07:08:25;;;;;;;12.38;1.83;;;3.10;99.90;;;;;;5049563;28;20428;-69
2022/01/20 07:10:50;;;;;;;9.82;1.63;;;3.10;99.90;;;;;;5037497;28;20439;-71
2022/01/20 07:13:16;;;;;;;7.18;1.60;;;3.10;99.90;;;;;;5047042;28;20052;-70
2022/01/20 07:15:42;;;;;;;11.30;2.22;;;3.10;99.90;;;;;;5044768;28;20539;-70
2022/01/20 07:18:07;;;;;;;8.75;1.80;;;3.00;99.90;;;;;;5044043;28;20098;-71
2022/01/20 07:20:33;;;;;;;13.48;2.10;;;3.00;99.90;;;;;;5046788;28;20185;-71
2022/01/20 07:22:58;;;;;;;10.70;2.38;;;2.90;99.90;;;;;;5049559;28;20041;-71
2022/01/20 07:25:24;;;;;;;12.93;2.30;;;2.90;99.90;;;;;;5049182;28;20049;-71
2022/01/20 07:27:49;;;;;;;8.48;2.10;;;2.90;99.90;;;;;;5043868;28;20053;-71
2022/01/20 07:30:15;;;;;;;11.20;2.53;;;2.80;99.90;;;;;;5042442;28;20056;-70
2022/01/20 07:32:41;;;;;;;11.70;2.28;;;2.80;99.90;;;;;;5039631;28;20041;-70
2022/01/20 07:35:07;;;;;;;10.90;2.42;;;2.80;99.90;;;;;;5046187;28;20045;-70
2022/01/20 07:37:32;;;;;;;8.88;1.63;;;2.70;99.90;;;;;;5036849;28;20056;-70
2022/01/20 07:39:58;;;;;;;11.25;1.80;;;2.70;99.90;;;;;;5046214;28;20063;-70
2022/01/20 07:42:23;;;;;;;10.38;1.73;;;2.70;99.90;;;;;;5043364;28;20045;-70
2022/01/20 07:44:49;;;;;;;10.10;1.98;;;2.70;99.90;;;;;;5045885;28;20112;-70
2022/01/20 07:47:15;;;;;;;8.32;1.85;;;2.70;99.90;;;;;;5059168;28;20048;-70
2022/01/20 07:49:41;;;;;;;14.60;2.33;;;2.70;99.90;;;;;;5043111;28;20469;-71
2022/01/20 07:52:07;;;;;;;11.60;2.05;;;2.70;99.90;;;;;;5033920;28;20118;-70
2022/01/20 07:54:32;;;;;;;10.60;1.83;;;2.70;99.90;;;;;;5050463;28;20049;-70
2022/01/20 07:56:58;;;;;;;12.10;2.08;;;2.70;99.90;;;;;;5049419;28;20099;-71
2022/01/20 07:59:24;;;;;;;16.52;2.40;;;2.70;99.90;;;;;;5044828;28;20048;-71
2022/01/20 08:01:51;;;;;;;14.63;2.40;;;2.80;99.90;;;;;;5049740;28;20119;-70
2022/01/20 08:04:17;;;;;;;15.02;2.10;;;2.80;99.90;;;;;;5042314;28;20049;-70
2022/01/20 08:06:42;;;;;;;16.52;2.90;;;2.80;99.90;;;;;;5035126;28;20041;-70
2022/01/20 08:09:09;;;;;;;16.55;2.55;;;2.90;99.90;;;;;;5038266;28;20396;-70
2022/01/20 08:11:34;;;;;;;12.32;2.30;;;2.90;99.90;;;;;;5046696;28;20061;-69
2022/01/20 08:14:00;;;;;;;13.27;2.60;;;2.90;99.90;;;;;;5054521;28;20045;-69
2022/01/20 08:16:26;;;;;;;12.68;2.50;;;2.90;99.90;;;;;;5031972;28;20083;-70
2022/01/20 08:18:53;;;;;;;14.80;2.38;;;2.90;99.90;;;;;;5038841;28;20063;-69
2022/01/20 08:21:19;;;;;;;17.90;2.85;;;2.90;99.90;;;;;;5033555;28;20080;-68
2022/01/20 08:23:44;;;;;;;16.73;2.70;;;3.00;99.90;;;;;;5038464;28;20469;-69
2022/01/20 08:26:10;;;;;;;13.07;2.20;;;3.00;99.90;;;;;;5045729;28;20120;-69
2022/01/20 08:28:36;;;;;;;13.05;2.42;;;3.00;99.90;;;;;;5043272;28;20149;-70
2022/01/20 08:31:01;;;;;;;17.13;2.90;;;3.10;99.90;;;;;;5035240;28;20045;-68
2022/01/20 08:33:27;;;;;;;14.43;3.45;;;3.10;99.90;;;;;;5027143;28;20146;-70
2022/01/20 08:35:53;;;;;;;11.05;2.30;;;3.00;99.90;;;;;;5036844;28;20041;-69
2022/01/20 08:38:20;;;;;;;15.32;2.45;;;3.00;99.90;;;;;;5040403;28;20060;-69
2022/01/20 08:40:47;;;;;;;13.38;2.47;;;3.00;99.90;;;;;;5049584;28;20471;-71
2022/01/20 08:43:13;;;;;;;11.27;2.10;;;2.90;99.90;;;;;;5037935;28;20045;-70
2022/01/20 08:45:39;;;;;;;15.25;2.40;;;2.90;99.90;;;;;;5045824;28;20050;-70
2022/01/20 08:48:05;;;;;;;14.70;2.70;;;2.90;99.90;;;;;;5043360;28;20053;-73
2022/01/20 08:50:32;;;;;;;13.38;2.70;;;2.90;99.90;;;;;;5040836;28;20053;-71
2022/01/20 08:52:58;;;;;;;15.95;3.03;;;2.90;99.90;;;;;;5043672;28;20045;-70
2022/01/20 08:55:26;;;;;;;14.15;2.20;;;2.90;99.90;;;;;;5045505;28;20048;-71
2022/01/20 08:57:53;;;;;;;13.35;2.70;;;2.90;99.90;;;;;;5039073;28;20195;-68
2022/01/20 09:00:20;;;;;;;12.50;2.05;;;2.90;99.90;;;;;;5046563;28;20473;-69
2022/01/20 09:02:46;;;;;;;14.00;2.90;;;2.90;99.90;;;;;;5046381;28;20156;-70
2022/01/20 09:05:12;;;;;;;14.43;2.17;;;3.00;99.90;;;;;;5045982;28;20101;-69
2022/01/20 09:07:38;;;;;;;19.27;2.70;;;3.00;99.90;;;;;;5047374;28;20445;-70
2022/01/20 09:10:07;;;;;;;16.58;2.45;;;3.00;99.90;;;;;;5048818;28;20056;-70
2022/01/20 09:17:46;;;;;;;16.50;2.58;;;3.10;99.90;;;;;;5044916;28;20074;-71
2022/01/20 09:20:12;;;;;;;8.13;2.17;;;3.20;99.90;;;;;;5045663;28;20056;-68
2022/01/20 09:22:38;;;;;;;18.58;2.92;;;3.30;99.90;;;;;;5048150;28;20037;-69
2022/01/20 09:25:06;;;;;;;9.60;2.08;;;3.40;99.90;;;;;;5046338;28;20044;-69
2022/01/20 09:27:32;;;;;;;13.10;2.70;;;3.50;99.90;;;;;;5043936;28;20037;-69
2022/01/20 09:29:58;;;;;;;17.02;2.05;;;3.60;99.90;;;;;;5047799;28;20048;-69
2022/01/20 09:32:27;;;;;;;16.35;2.15;;;3.70;99.90;;;;;;5046463;28;20048;-69
2022/01/20 09:34:52;;;;;;;14.52;2.13;;;3.70;99.90;;;;;;5046103;28;20364;-70
2022/01/20 09:37:18;;;;;;;13.65;2.50;;;3.80;99.90;;;;;;5047840;28;20044;-69
2022/01/20 09:39:45;;;;;;;10.35;2.22;;;3.90;99.90;;;;;;5055639;28;20103;-69
2022/01/20 09:42:11;;;;;;;7.47;1.77;;;4.00;99.90;;;;;;5047261;28;20057;-70
2022/01/20 09:44:44;;;;;;;9.48;1.83;;;4.10;99.90;;;;;;5044214;28;20124;-70
2022/01/20 09:47:10;;;;;;;11.13;1.73;;;4.10;99.90;;;;;;5042838;28;20041;-70
2022/01/20 09:49:37;;;;;;;7.82;1.40;;;4.00;99.90;;;;;;5044848;28;20045;-70
2022/01/20 09:52:03;;;;;;;9.18;2.03;;;3.90;99.90;;;;;;5045417;28;20040;-71
2022/01/20 09:54:29;;;;;;;11.60;1.67;;;3.80;99.90;;;;;;5045863;28;20120;-70
2022/01/20 09:56:55;;;;;;;10.10;1.77;;;3.60;99.90;;;;;;5043919;28;20101;-70
2022/01/20 09:59:21;;;;;;;9.85;2.00;;;3.60;99.90;;;;;;5046943;28;20219;-71
2022/01/20 10:01:56;;;;;;;11.73;2.03;;;3.50;99.90;;;;;;5045662;28;20227;-71
2022/01/20 10:04:23;;;;;;;13.68;1.92;;;3.50;99.90;;;;;;5038063;28;20052;-69
2022/01/20 10:06:59;;;;;;;12.30;2.15;;;3.50;99.90;;;;;;5038058;28;20080;-70
2022/01/20 10:09:36;;;;;;;14.45;2.03;;;3.60;99.90;;;;;;5036776;28;20048;-68
2022/01/20 10:12:03;;;;;;;13.00;2.00;;;3.70;99.90;;;;;;5047759;28;20040;-70
2022/01/20 10:14:42;;;;;;;14.07;2.58;;;3.70;99.90;;;;;;5050981;28;20110;-68
2022/01/20 10:17:27;;;;;;;13.30;2.20;;;3.80;99.90;;;;;;5052899;28;20053;-69
2022/01/20 10:19:54;;;;;;;13.43;2.25;;;3.80;99.90;;;;;;5052464;28;20032;-69
2022/01/20 10:22:23;;;;;;;14.43;2.67;;;3.90;99.90;;;;;;5051607;28;20499;-70
2022/01/20 10:25:02;;;;;;;16.98;2.70;;;4.00;99.90;;;;;;5054811;28;20143;-69
2022/01/20 10:27:30;;;;;;;10.95;2.53;;;4.10;99.90;;;;;;5028270;28;20061;-70
2022/01/20 10:29:59;;;;;;;13.68;2.45;;;4.20;99.90;;;;;;5049651;28;20288;-69
2022/01/20 10:32:26;;;;;;;17.40;2.90;;;4.30;99.90;;;;;;5044698;28;20207;-68
2022/01/20 10:35:06;;;;;;;14.88;2.95;;;4.40;99.90;;;;;;5028729;28;20083;-70
2022/01/20 10:37:32;;;;;;;15.15;3.05;;;4.40;99.90;;;;;;5050721;28;20118;-70
2022/01/20 10:40:06;;;;;;;13.10;2.83;;;4.40;99.90;;;;;;5052676;28;20484;-70
2022/01/20 10:42:37;;;;;;;13.47;2.63;;;4.50;99.90;;;;;;5045991;28;20060;-70
2022/01/20 10:45:03;;;;;;;15.95;2.40;;;4.50;99.90;;;;;;5046047;28;20357;-70
2022/01/20 10:47:36;;;;;;;16.17;2.75;;;4.50;99.90;;;;;;5045055;28;20053;-70
2022/01/20 10:50:13;;;;;;;11.25;2.05;;;4.50;99.90;;;;;;5047939;28;20037;-69
2022/01/20 10:52:43;;;;;;;10.82;2.40;;;4.60;99.90;;;;;;5046353;28;20033;-69
2022/01/20 10:55:24;;;;;;;11.85;2.65;;;4.60;99.90;;;;;;5050409;28;20045;-70
2022/01/20 10:57:52;;;;;;;8.75;1.80;;;4.60;99.90;;;;;;5052296;28;20059;-71
2022/01/20 11:00:20;;;;;;;12.90;2.40;;;4.70;99.90;;;;;;5053336;28;20442;-70
2022/01/20 11:02:57;;;;;;;15.65;2.63;;;4.70;99.90;;;;;;5050745;28;20045;-70
2022/01/20 11:05:24;;;;;;;14.02;2.88;;;4.70;99.90;;;;;;5047907;28;20048;-71
2022/01/20 11:07:51;;;;;;;14.65;3.03;;;4.80;99.90;;;;;;5037861;28;20163;-70
2022/01/20 11:10:18;;;;;;;17.92;2.72;;;4.90;99.90;;;;;;5045749;28;20506;-70
2022/01/20 11:12:44;;;;;;;10.65;2.25;;;4.80;99.90;;;;;;5060731;28;20067;-71
2022/01/20 11:15:16;;;;;;;13.90;2.20;;;4.90;99.90;;;;;;5046771;28;20029;-70
2022/01/20 11:17:42;;;;;;;13.93;2.53;;;4.90;99.90;;;;;;5045050;28;20045;-70
2022/01/20 11:20:17;;;;;;;18.00;2.72;;;4.90;99.90;;;;;;5048086;28;20446;-71
2022/01/20 11:23:04;;;;;;;13.38;2.38;;;5.00;99.90;;;;;;5043737;28;20095;-70
2022/01/20 11:25:37;;;;;;;21.85;2.95;;;5.00;99.90;;;;;;5046096;28;20124;-70
2022/01/20 11:28:08;;;;;;;14.48;2.17;;;5.10;99.90;;;;;;5046840;28;20346;-71
2022/01/20 11:30:39;;;;;;;13.75;2.40;;;5.20;99.90;;;;;;5048100;28;20072;-70
2022/01/20 11:33:08;;;;;;;11.50;2.20;;;5.20;99.90;;;;;;5048130;28;20503;-70
2022/01/20 11:35:37;;;;;;;11.10;2.35;;;5.10;99.90;;;;;;5045897;28;20037;-70
2022/01/20 11:38:03;;;;;;;13.00;2.38;;;4.90;99.90;;;;;;5048204;28;20115;-71
2022/01/20 11:40:29;;;;;;;10.73;2.03;;;4.50;99.90;;;;;;5042097;28;20062;-70
2022/01/20 11:43:04;;;;;;;11.73;2.72;;;4.40;99.90;;;;;;5046155;28;20155;-71
2022/01/20 11:45:33;;;;;;;19.95;2.50;;;4.30;99.90;;;;;;5042901;28;20614;-69
2022/01/20 11:48:12;;;;;;;15.23;2.60;;;4.20;99.90;;;;;;5046683;28;20052;-70
2022/01/20 11:50:37;;;;;;;15.18;2.70;;;4.20;99.90;;;;;;5041677;28;20446;-70
2022/01/20 11:53:21;;;;;;;14.25;2.80;;;4.10;99.90;;;;;;5045553;28;20060;-70
2022/01/20 11:55:52;;;;;;;17.00;2.53;;;4.10;99.90;;;;;;5054768;28;20147;-68
2022/01/20 11:58:20;;;;;;;13.18;2.67;;;4.10;99.90;;;;;;5046449;28;20079;-71
2022/01/20 12:01:07;;;;;;;13.52;2.30;;;4.10;99.90;;;;;;5049090;28;20098;-70
2022/01/20 12:03:36;;;;;;;16.38;2.95;;;4.10;99.90;;;;;;5050960;28;20044;-70
2022/01/20 12:06:08;;;;;;;12.15;2.58;;;4.20;99.90;;;;;;5055472;28;20471;-71
2022/01/20 12:08:34;;;;;;;15.95;2.95;;;4.40;99.90;;;;;;5043086;28;20418;-71
2022/01/20 12:11:08;;;;;;;15.50;2.90;;;4.60;99.90;;;;;;5048679;28;20056;-71
2022/01/20 12:13:48;;;;;;;15.63;2.35;;;4.60;99.90;;;;;;5046077;28;20037;-71
2022/01/20 12:16:23;;;;;;;14.77;2.92;;;4.40;99.90;;;;;;5042556;28;20155;-71
2022/01/20 12:18:54;;;;;;;13.00;2.60;;;4.30;99.90;;;;;;5045730;28;20140;-71
2022/01/20 12:21:21;;;;;;;16.08;2.72;;;4.10;99.90;;;;;;5046884;28;20111;-70
2022/01/20 12:23:48;;;;;;;16.55;2.42;;;4.00;99.90;;;;;;5033726;28;20047;-71
2022/01/20 12:26:14;;;;;;;11.77;2.17;;;4.00;99.90;;;;;;5049749;28;20052;-71
2022/01/20 12:28:40;;;;;;;12.35;2.05;;;4.00;99.90;;;;;;5045527;28;20494;-71
2022/01/20 12:31:08;;;;;;;10.45;1.75;;;4.00;99.90;;;;;;5049942;28;20053;-70
2022/01/20 12:33:36;;;;;;;11.68;2.05;;;4.10;99.90;;;;;;5045616;28;20068;-71
2022/01/20 12:36:04;;;;;;;14.05;2.50;;;4.10;99.90;;;;;;5062426;28;20040;-70
2022/01/20 12:38:35;;;;;;;14.27;2.15;;;4.20;99.90;;;;;;5047639;28;20037;-71
2022/01/20 12:41:03;;;;;;;12.48;2.25;;;4.20;99.90;;;;;;5048987;28;20048;-70
2022/01/20 12:43:45;;;;;;;13.05;2.40;;;4.30;99.90;;;;;;5048019;28;20124;-71
2022/01/20 12:46:30;;;;;;;13.15;2.35;;;4.30;99.90;;;;;;5048892;28;20049;-71
2022/01/20 12:49:07;;;;;;;15.82;2.05;;;4.40;99.90;;;;;;5045736;28;20044;-70
2022/01/20 12:51:39;;;;;;;15.38;2.33;;;4.40;99.90;;;;;;5046324;28;20135;-69
2022/01/20 12:54:27;;;;;;;11.98;2.38;;;4.50;99.90;;;;;;5046332;28;20049;-71
2022/01/20 12:56:54;;;;;;;16.73;2.60;;;4.60;99.90;;;;;;5041456;28;20041;-67
2022/01/20 12:59:27;;;;;;;12.48;2.88;;;4.80;99.90;;;;;;5060941;28;20154;-68
2022/01/20 13:01:56;;;;;;;12.27;3.15;;;4.90;99.90;;;;;;5048598;28;20220;-69
2022/01/20 13:04:26;;;;;;;11.45;1.73;;;5.00;99.90;;;;;;5046269;28;20120;-70
2022/01/20 13:06:56;;;;;;;12.48;2.63;;;5.10;99.90;;;;;;5056932;28;20082;-68
2022/01/20 13:09:25;;;;;;;12.20;1.98;;;5.10;99.90;;;;;;5047160;28;20041;-69
2022/01/20 13:11:57;;;;;;;13.98;2.35;;;5.20;99.90;;;;;;5049100;28;20072;-69
2022/01/20 13:14:40;;;;;;;11.90;1.85;;;5.10;99.90;;;;;;5048816;28;20045;-69
2022/01/20 13:17:08;;;;;;;10.60;1.95;;;5.10;99.90;;;;;;5046784;28;20106;-68
2022/01/20 13:19:36;;;;;;;11.43;2.17;;;5.00;99.90;;;;;;5047656;28;20212;-70
2022/01/20 13:22:04;;;;;;;10.18;1.92;;;4.90;99.90;;;;;;5048067;28;20041;-69
2022/01/20 13:24:32;;;;;;;13.57;2.17;;;4.90;99.90;;;;;;5044966;28;20395;-69
2022/01/20 13:26:59;;;;;;;10.23;3.05;;;4.80;99.90;;;;;;5045920;28;20045;-69
2022/01/20 13:29:26;;;;;;;7.43;1.80;;;4.60;99.90;;;;;;5046465;28;20118;-69
2022/01/20 13:31:56;;;;;;;9.85;1.60;;;4.50;99.90;;;;;;5047627;28;20049;-69
2022/01/20 13:34:22;;;;;;;8.27;1.85;;;4.30;99.90;;;;;;5056682;28;20045;-70
2022/01/20 13:36:53;;;;;;;9.20;1.70;;;4.30;99.90;;;;;;5045718;28;20510;-69
2022/01/20 13:39:36;;;;;;;7.78;1.50;;;4.20;99.90;;;;;;5047556;28;20041;-69
2022/01/20 13:42:09;;;;;;;12.13;2.00;;;4.20;99.90;;;;;;5048282;28;20152;-69
2022/01/20 13:47:19;;;;;;;11.45;1.73;;;4.20;99.90;;;;;;5039491;28;20493;-70
2022/01/20 13:49:55;;;;;;;15.13;2.17;;;4.20;99.90;;;;;;5049193;28;20057;-70
2022/01/20 13:52:21;;;;;;;11.30;1.77;;;4.20;99.90;;;;;;5048954;28;20213;-70
2022/01/20 13:54:53;;;;;;;10.32;1.88;;;4.20;99.90;;;;;;5051086;28;20358;-69
2022/01/20 13:57:20;;;;;;;12.52;1.92;;;4.20;99.90;;;;;;5048915;28;20534;-70
2022/01/20 13:59:54;;;;;;;13.10;1.70;;;4.20;99.90;;;;;;5050260;28;20266;-70